Airfield :
LOGIN :

Register | Disclaimer

   EN    FR    IT 

 










Legend :    VFR   Marginal VFR   IFR   Intensive IFR   Very Intensive IFR
Visi :
Ceiling :
>= 8 km
>= 3000ft
5 to 8 km
1000 to 3000 ft
1500m to 5 km
500 to 1000 ft
800 to 1500m
200 to 500 ft
< 800m
< 200 ft
Symbols :   Thunderstorms  Fog  Heavy snow  Heavy precipitations  Wind > 20 kt
SIGMETs :     Misc.  Thunderstorms  Icing  Turbulence  Mountain Waves  Volcanic Ashes






- Airport Elevation : 1084 ft
- IATA code : EPL


LFSG - Épinal-Mirecourt

CURRENT METAR :
  • 052000Z AUTO 36012KT 9999 BKN020 OVC033 05/02 Q1036

EXPIRED METARs :
  • 051930Z AUTO 36013KT 9999 BKN023 OVC030 05/02 Q1036
  • 051900Z AUTO 35012KT 9999 OVC021 05/02 Q1036
  • 051830Z AUTO 34010KT 9999 OVC022 05/03 Q1035
  • 051800Z AUTO 35010KT 9999 -RA BKN016 BKN022 OVC028 04/03 Q1036
  • 051730Z AUTO 35011KT 9999 -DZ BKN015 BKN024 OVC029 04/03 Q1036

TAF N/A



MET'MAP, your aeronautical weather chart ! - Copyright ORBIFLY December 2007 - Disclaimer

ORBIFLY MET'MAP TEAM :

Programming & Development : Alexandra Zaïnal
Original concept : Baudouin d'Aumeries
Technical & hardware support : Manuel Goepfert
Assistance : Marc-Olivier Méhu




SOURCES & CREDITS :

   NOAA